Time;durP1;ratioP1;P1;durP2;ratioP2;P2;SDS_P1;SDS_P2;PMS_P1;PMS_P2;Temp;Humidity;BMP_temperature;BMP_pressure;BME280_temperature;BME280_humidity;BME280_pressure;Samples;Min_cycle;Max_cycle;Signal;HPM_P1;HPM_P2
2021/01/31 00:00:45;;;;;;;4.40;4.00;;;3.20;99.90;;;;;;4906731;28;20234;-73
2021/01/31 00:03:14;;;;;;;4.63;4.22;;;3.10;99.90;;;;;;4906115;28;20303;-72
2021/01/31 00:05:42;;;;;;;4.30;3.90;;;3.10;99.90;;;;;;4905932;29;20276;-72
2021/01/31 00:08:10;;;;;;;4.53;4.13;;;3.10;99.90;;;;;;4906357;28;20708;-72
2021/01/31 00:10:38;;;;;;;5.15;4.22;;;3.00;99.90;;;;;;4906046;29;20313;-72
2021/01/31 00:13:06;;;;;;;4.40;4.00;;;3.00;99.90;;;;;;4905426;29;20272;-72
2021/01/31 00:15:34;;;;;;;5.00;4.60;;;2.90;99.90;;;;;;4905518;29;20293;-70
2021/01/31 00:18:02;;;;;;;4.60;4.20;;;2.90;99.90;;;;;;4906350;29;20951;-70
2021/01/31 00:20:31;;;;;;;4.90;4.40;;;2.90;99.90;;;;;;4905850;29;20258;-73
2021/01/31 00:22:57;;;;;;;5.03;4.53;;;2.90;99.90;;;;;;4905556;29;20241;-73
2021/01/31 00:25:24;;;;;;;5.00;4.60;;;2.90;99.90;;;;;;4906072;29;20217;-72
2021/01/31 00:27:51;;;;;;;5.25;4.75;;;2.80;99.90;;;;;;4907585;28;20264;-73
2021/01/31 00:30:21;;;;;;;5.00;4.53;;;2.80;99.90;;;;;;4907060;29;20206;-72
2021/01/31 00:32:48;;;;;;;6.47;4.80;;;2.80;99.90;;;;;;4907728;29;20234;-72
2021/01/31 00:35:17;;;;;;;6.50;5.38;;;2.80;99.90;;;;;;4907955;29;20217;-71
2021/01/31 00:37:43;;;;;;;5.25;4.75;;;2.80;99.90;;;;;;4907757;28;20217;-73
2021/01/31 00:40:10;;;;;;;5.97;5.47;;;2.80;99.90;;;;;;4907462;29;20228;-73
2021/01/31 00:42:37;;;;;;;6.45;5.85;;;2.80;99.90;;;;;;4907170;29;20214;-73
2021/01/31 00:45:08;;;;;;;5.28;4.78;;;2.90;99.90;;;;;;4912659;28;20210;-72
2021/01/31 00:47:34;;;;;;;5.35;4.72;;;2.90;99.90;;;;;;4916578;28;20217;-72
2021/01/31 00:50:01;;;;;;;5.90;5.30;;;2.90;99.90;;;;;;4923742;29;20201;-73
2021/01/31 00:52:27;;;;;;;5.13;4.63;;;2.80;99.90;;;;;;4924780;29;20205;-72
2021/01/31 00:54:53;;;;;;;5.85;5.35;;;2.80;99.90;;;;;;4926022;29;20201;-72
2021/01/31 00:57:20;;;;;;;6.25;5.65;;;2.90;99.90;;;;;;4925716;29;20208;-74
2021/01/31 00:59:47;;;;;;;5.70;5.20;;;2.80;99.90;;;;;;4925741;29;20973;-72
2021/01/31 01:02:18;;;;;;;5.00;4.60;;;2.90;99.90;;;;;;4925011;29;20633;-72
2021/01/31 01:04:45;;;;;;;6.13;5.40;;;2.90;99.90;;;;;;4926079;29;20653;-72
2021/01/31 01:07:11;;;;;;;5.53;5.03;;;2.90;99.90;;;;;;4927532;29;20198;-71
2021/01/31 01:09:38;;;;;;;6.20;5.60;;;2.90;99.90;;;;;;4929584;29;20209;-72
2021/01/31 01:12:05;;;;;;;6.57;5.88;;;2.90;99.90;;;;;;4928456;29;20612;-72
2021/01/31 01:14:32;;;;;;;5.93;5.07;;;2.90;99.90;;;;;;4911560;28;20315;-72
2021/01/31 01:16:58;;;;;;;5.70;5.15;;;2.90;99.90;;;;;;4910546;28;20209;-69
2021/01/31 01:19:26;;;;;;;6.30;5.57;;;2.80;99.90;;;;;;4909621;28;20202;-72
2021/01/31 01:21:52;;;;;;;5.45;4.95;;;2.80;99.90;;;;;;4909759;28;20222;-72
2021/01/31 01:24:19;;;;;;;5.35;4.82;;;2.80;99.90;;;;;;4917307;28;20232;-72
2021/01/31 01:26:45;;;;;;;5.55;4.93;;;2.80;99.90;;;;;;4917756;29;20226;-72
2021/01/31 01:29:12;;;;;;;7.50;5.80;;;2.80;99.90;;;;;;4910398;28;20206;-73
2021/01/31 01:31:38;;;;;;;5.40;4.90;;;2.80;99.90;;;;;;4909760;28;20239;-73
2021/01/31 01:34:05;;;;;;;5.53;5.03;;;2.80;99.90;;;;;;4910527;28;20320;-73
2021/01/31 01:36:33;;;;;;;5.00;4.60;;;2.80;99.90;;;;;;4912418;28;20206;-73
2021/01/31 01:38:59;;;;;;;5.50;5.00;;;2.80;99.90;;;;;;4924713;22;20600;-72
2021/01/31 01:41:25;;;;;;;6.75;5.60;;;2.80;99.90;;;;;;4930166;28;20221;-72
2021/01/31 01:43:52;;;;;;;5.78;5.18;;;2.80;99.90;;;;;;4930337;28;20229;-72
2021/01/31 01:46:45;;;;;;;5.70;5.20;;;2.80;99.90;;;;;;4931243;28;20220;-72
2021/01/31 01:49:19;;;;;;;5.30;4.80;;;2.80;99.90;;;;;;4930932;28;20703;-72
2021/01/31 01:51:50;;;;;;;5.90;5.07;;;2.80;99.90;;;;;;4930886;29;20563;-72
2021/01/31 01:54:21;;;;;;;5.50;5.00;;;2.80;99.90;;;;;;4930937;29;20252;-72
2021/01/31 01:56:53;;;;;;;6.35;5.78;;;2.80;99.90;;;;;;4931530;29;20247;-72
2021/01/31 01:59:19;;;;;;;6.40;5.90;;;2.80;99.90;;;;;;4930855;28;20205;-72
2021/01/31 02:01:58;;;;;;;7.78;6.50;;;2.90;99.90;;;;;;4930518;29;20562;-72
2021/01/31 02:04:24;;;;;;;6.22;5.63;;;2.90;99.90;;;;;;4930589;28;20229;-72
2021/01/31 02:06:51;;;;;;;6.60;6.00;;;2.90;99.90;;;;;;4931115;29;20206;-72
2021/01/31 02:09:18;;;;;;;6.95;5.88;;;2.90;99.90;;;;;;4930915;28;20213;-72
2021/01/31 02:11:44;;;;;;;6.85;6.10;;;2.90;99.90;;;;;;4930248;29;20206;-72
2021/01/31 02:14:11;;;;;;;6.50;5.90;;;2.90;99.90;;;;;;4930659;28;20229;-72
2021/01/31 02:16:49;;;;;;;6.80;6.20;;;2.90;99.90;;;;;;4930772;28;20209;-72
2021/01/31 02:19:57;;;;;;;6.78;5.88;;;2.80;99.90;;;;;;4929596;28;20243;-72
2021/01/31 02:22:53;;;;;;;7.13;6.43;;;2.90;99.90;;;;;;4935029;28;20267;-72
2021/01/31 02:25:44;;;;;;;6.80;6.15;;;2.90;99.90;;;;;;4931015;28;20546;-71
2021/01/31 02:28:37;;;;;;;8.30;7.30;;;2.90;99.90;;;;;;4932910;28;20224;-72
2021/01/31 02:31:35;;;;;;;8.00;6.63;;;2.90;99.90;;;;;;4930519;28;20208;-72
2021/01/31 02:34:07;;;;;;;7.47;6.15;;;2.90;99.90;;;;;;4933765;28;20658;-72
2021/01/31 02:36:42;;;;;;;8.85;7.70;;;2.90;99.90;;;;;;4929488;28;20474;-72
2021/01/31 02:39:17;;;;;;;8.38;7.45;;;2.90;99.90;;;;;;4930168;28;20580;-72
2021/01/31 02:41:54;;;;;;;8.95;7.57;;;2.90;99.90;;;;;;4930068;29;20243;-72
2021/01/31 02:44:24;;;;;;;7.63;6.82;;;2.80;99.90;;;;;;4930078;29;20290;-72
2021/01/31 02:46:55;;;;;;;8.15;7.35;;;2.80;99.90;;;;;;4930665;28;20855;-72
2021/01/31 02:49:25;;;;;;;7.70;7.00;;;2.80;99.90;;;;;;4930062;28;20205;-72
2021/01/31 02:51:59;;;;;;;7.78;6.97;;;2.70;99.90;;;;;;4929598;28;20211;-72
2021/01/31 02:54:31;;;;;;;7.80;7.10;;;2.70;99.90;;;;;;4930361;28;20233;-72
2021/01/31 02:57:02;;;;;;;7.80;6.10;;;2.70;99.90;;;;;;4930098;29;20209;-72
2021/01/31 02:59:35;;;;;;;7.60;6.80;;;2.70;99.90;;;;;;4930269;28;20699;-72
2021/01/31 03:02:05;;;;;;;7.97;6.90;;;2.70;99.90;;;;;;4929311;29;20268;-72
2021/01/31 03:04:36;;;;;;;7.68;6.82;;;2.60;99.90;;;;;;4930067;28;20778;-72
2021/01/31 03:07:10;;;;;;;7.85;7.05;;;2.60;99.90;;;;;;4929782;28;20212;-72
2021/01/31 03:09:43;;;;;;;8.93;7.50;;;2.50;99.90;;;;;;4929975;29;20209;-72
2021/01/31 03:12:15;;;;;;;8.13;7.22;;;2.50;99.90;;;;;;4929408;28;20201;-72
2021/01/31 03:14:43;;;;;;;8.07;7.28;;;2.50;99.90;;;;;;4929870;29;20240;-72
2021/01/31 03:17:16;;;;;;;7.90;7.10;;;2.50;99.90;;;;;;4929870;28;20208;-72
2021/01/31 03:19:49;;;;;;;7.60;6.80;;;2.50;99.90;;;;;;4929615;29;20220;-72
2021/01/31 03:22:21;;;;;;;8.60;7.65;;;2.50;99.90;;;;;;4929189;28;20225;-72
2021/01/31 03:24:52;;;;;;;7.90;7.20;;;2.40;99.90;;;;;;4929752;28;20233;-72
2021/01/31 03:27:24;;;;;;;7.35;6.60;;;2.40;99.90;;;;;;4929752;28;20216;-72
2021/01/31 03:29:51;;;;;;;8.13;7.32;;;2.40;99.90;;;;;;4929304;28;21037;-72
2021/01/31 03:32:21;;;;;;;8.07;7.28;;;2.40;99.90;;;;;;4929101;28;20251;-72
2021/01/31 03:34:53;;;;;;;8.38;7.50;;;2.30;99.90;;;;;;4929700;28;20209;-72
2021/01/31 03:37:22;;;;;;;7.70;7.00;;;2.40;99.90;;;;;;4929592;28;20585;-72
2021/01/31 03:39:50;;;;;;;8.30;7.32;;;2.30;99.90;;;;;;4929736;29;20220;-72
2021/01/31 03:42:17;;;;;;;9.77;7.57;;;2.30;99.90;;;;;;4928676;29;20267;-72
2021/01/31 03:44:44;;;;;;;7.93;6.90;;;2.30;99.90;;;;;;4929627;28;20232;-72
2021/01/31 03:47:18;;;;;;;7.75;6.72;;;2.40;99.90;;;;;;4929281;28;20213;-72
2021/01/31 03:49:52;;;;;;;8.27;6.63;;;2.30;99.90;;;;;;4929373;28;20766;-72
2021/01/31 03:52:18;;;;;;;8.63;6.63;;;2.20;99.90;;;;;;4928524;29;20205;-72
2021/01/31 03:54:45;;;;;;;8.13;7.32;;;2.20;99.90;;;;;;4929413;28;20233;-72
2021/01/31 03:57:15;;;;;;;8.70;7.70;;;2.30;99.90;;;;;;4929292;28;20205;-72
2021/01/31 03:59:46;;;;;;;7.85;7.05;;;2.30;99.90;;;;;;4929408;29;20205;-71
2021/01/31 04:02:13;;;;;;;7.40;6.68;;;2.40;99.90;;;;;;4928734;28;20614;-72
2021/01/31 04:04:45;;;;;;;8.40;7.60;;;2.40;99.90;;;;;;4928763;28;20229;-72
2021/01/31 04:07:15;;;;;;;7.30;6.65;;;2.40;99.90;;;;;;4929223;28;20961;-72
2021/01/31 04:09:43;;;;;;;7.95;7.25;;;2.30;99.90;;;;;;4929025;28;20217;-72
2021/01/31 04:12:13;;;;;;;9.77;7.93;;;2.30;99.90;;;;;;4928614;28;20203;-72
2021/01/31 04:14:45;;;;;;;12.57;8.20;;;2.30;99.90;;;;;;4928796;28;20271;-72
2021/01/31 04:17:11;;;;;;;8.77;7.75;;;2.30;99.90;;;;;;4928787;29;20568;-72
2021/01/31 04:19:38;;;;;;;8.20;7.20;;;2.30;99.90;;;;;;4929070;29;20213;-71
2021/01/31 04:22:04;;;;;;;10.98;8.73;;;2.30;99.90;;;;;;4928103;28;20286;-72
2021/01/31 04:24:31;;;;;;;8.20;7.35;;;2.40;99.90;;;;;;4929067;28;20238;-71
2021/01/31 04:26:57;;;;;;;7.85;7.05;;;2.30;99.90;;;;;;4928937;28;20243;-71
2021/01/31 04:29:23;;;;;;;9.45;7.45;;;2.40;99.90;;;;;;4929171;29;20209;-71
2021/01/31 04:31:50;;;;;;;7.93;7.13;;;2.30;99.90;;;;;;4928158;28;20204;-71
2021/01/31 04:34:16;;;;;;;9.65;7.60;;;2.30;99.90;;;;;;4928595;28;20225;-71
2021/01/31 04:36:42;;;;;;;10.48;8.00;;;2.40;99.90;;;;;;4928940;29;20208;-71
2021/01/31 04:39:08;;;;;;;8.55;7.47;;;2.30;99.90;;;;;;4928328;28;20212;-71
2021/01/31 04:41:38;;;;;;;9.45;8.10;;;2.30;99.90;;;;;;4929073;28;20251;-71
2021/01/31 04:44:06;;;;;;;8.88;7.72;;;2.30;99.90;;;;;;4931825;28;20228;-72
2021/01/31 04:46:42;;;;;;;9.15;8.25;;;2.30;99.90;;;;;;4932149;28;20216;-71
2021/01/31 04:49:18;;;;;;;9.25;8.35;;;2.30;99.90;;;;;;4931779;29;20201;-71
2021/01/31 04:52:02;;;;;;;12.80;7.72;;;2.30;99.90;;;;;;4931568;29;20207;-72
2021/01/31 04:54:45;;;;;;;9.23;8.30;;;2.40;99.90;;;;;;4932031;28;20235;-71
2021/01/31 04:57:14;;;;;;;11.05;8.40;;;2.30;99.90;;;;;;4931838;28;20240;-71
2021/01/31 04:59:47;;;;;;;10.35;7.75;;;2.30;99.90;;;;;;4931934;29;20200;-71
2021/01/31 05:02:18;;;;;;;11.82;9.18;;;2.30;99.90;;;;;;4931025;29;20860;-71
2021/01/31 05:04:53;;;;;;;10.18;8.85;;;2.30;99.90;;;;;;4931917;28;20283;-72
2021/01/31 05:07:23;;;;;;;11.43;9.48;;;2.30;99.90;;;;;;4931578;28;20563;-72
2021/01/31 05:09:49;;;;;;;10.27;8.75;;;2.30;99.90;;;;;;4931872;28;20205;-72
2021/01/31 05:12:21;;;;;;;11.50;9.07;;;2.40;99.90;;;;;;4930899;29;20232;-71
2021/01/31 05:15:05;;;;;;;12.05;9.27;;;2.30;99.90;;;;;;4931820;29;20205;-71
2021/01/31 05:17:31;;;;;;;10.52;9.02;;;2.30;99.90;;;;;;4931484;28;20216;-71
2021/01/31 05:20:00;;;;;;;10.52;8.63;;;2.40;99.90;;;;;;4931556;28;20209;-71
2021/01/31 05:22:30;;;;;;;12.40;9.32;;;2.30;99.90;;;;;;4930977;28;20287;-71
2021/01/31 05:24:56;;;;;;;12.02;9.68;;;2.20;99.90;;;;;;4931398;28;20209;-71
2021/01/31 05:27:31;;;;;;;12.43;9.32;;;2.30;99.90;;;;;;4931481;29;20617;-72
2021/01/31 05:29:57;;;;;;;10.55;9.25;;;2.30;99.90;;;;;;4931204;29;20204;-71
2021/01/31 05:32:24;;;;;;;10.45;8.15;;;2.30;99.90;;;;;;4930693;28;20268;-71
2021/01/31 05:34:53;;;;;;;10.82;9.18;;;2.30;99.90;;;;;;4931176;28;20201;-71
2021/01/31 05:37:22;;;;;;;10.73;9.00;;;2.30;99.90;;;;;;4931314;28;20271;-72
2021/01/31 05:39:56;;;;;;;11.43;9.23;;;2.20;99.90;;;;;;4931309;28;20217;-72
2021/01/31 05:42:25;;;;;;;10.52;9.43;;;2.20;99.90;;;;;;4930434;28;20299;-71
2021/01/31 05:45:01;;;;;;;11.25;9.23;;;2.30;99.90;;;;;;4931487;28;20209;-72
2021/01/31 05:47:35;;;;;;;11.35;8.00;;;2.30;99.90;;;;;;4931089;28;20204;-71
2021/01/31 05:50:17;;;;;;;12.32;8.80;;;2.30;99.90;;;;;;4931082;28;20213;-72
2021/01/31 05:52:43;;;;;;;11.85;9.90;;;2.30;99.90;;;;;;4930307;28;20237;-72
2021/01/31 05:55:30;;;;;;;11.20;9.40;;;2.30;99.90;;;;;;4931039;28;20205;-72
2021/01/31 05:58:16;;;;;;;11.85;9.77;;;2.30;99.90;;;;;;4930883;29;20624;-72
2021/01/31 06:00:44;;;;;;;11.60;9.63;;;2.30;99.90;;;;;;4930962;28;20228;-72
2021/01/31 06:03:12;;;;;;;10.85;9.73;;;2.30;99.90;;;;;;4930012;28;20595;-71
2021/01/31 06:05:38;;;;;;;11.70;9.43;;;2.30;99.90;;;;;;4931099;29;20205;-72
2021/01/31 06:08:08;;;;;;;12.52;9.50;;;2.30;99.90;;;;;;4930841;29;20267;-71
2021/01/31 06:10:38;;;;;;;12.13;9.70;;;2.30;99.90;;;;;;4930801;28;20223;-71
2021/01/31 06:13:18;;;;;;;15.30;10.65;;;2.30;99.90;;;;;;4930302;28;20232;-71
2021/01/31 06:15:53;;;;;;;11.80;9.77;;;2.30;99.90;;;;;;4930547;28;20575;-72
2021/01/31 06:18:23;;;;;;;10.70;9.40;;;2.30;99.90;;;;;;4930750;28;20213;-72
2021/01/31 06:20:49;;;;;;;12.68;9.82;;;2.30;99.90;;;;;;4930513;28;20256;-72
2021/01/31 06:23:30;;;;;;;12.23;8.80;;;2.30;99.90;;;;;;4930068;28;20268;-73
2021/01/31 06:25:56;;;;;;;12.73;10.30;;;2.40;99.90;;;;;;4930485;28;20205;-72
2021/01/31 06:28:27;;;;;;;15.37;12.63;;;2.50;99.90;;;;;;4930027;29;20579;-71
2021/01/31 06:31:04;;;;;;;12.45;10.50;;;2.50;99.90;;;;;;4930428;28;20472;-72
2021/01/31 06:33:31;;;;;;;10.52;9.43;;;2.60;99.90;;;;;;4930360;29;20716;-71
2021/01/31 06:36:09;;;;;;;10.95;9.63;;;2.50;99.90;;;;;;4930941;28;20209;-71
2021/01/31 06:38:42;;;;;;;10.57;9.13;;;2.60;99.90;;;;;;4930722;28;20205;-71
2021/01/31 06:41:18;;;;;;;13.52;9.30;;;2.50;99.90;;;;;;4930629;29;20220;-71
2021/01/31 06:43:58;;;;;;;10.70;9.15;;;2.50;99.90;;;;;;4930104;28;20283;-70
2021/01/31 06:46:32;;;;;;;11.15;9.07;;;2.50;99.90;;;;;;4930570;28;20569;-71
2021/01/31 06:49:06;;;;;;;11.98;9.95;;;2.50;99.90;;;;;;4930243;28;20243;-71
2021/01/31 06:51:55;;;;;;;9.82;8.90;;;2.50;99.90;;;;;;4930265;28;20205;-71
2021/01/31 06:54:57;;;;;;;11.18;9.63;;;2.50;99.90;;;;;;4930127;28;20229;-71
2021/01/31 06:57:59;;;;;;;11.40;9.85;;;2.40;99.90;;;;;;4930275;28;20579;-70
2021/01/31 07:01:04;;;;;;;10.35;9.10;;;2.40;99.90;;;;;;4929997;29;20209;-70
2021/01/31 07:03:48;;;;;;;11.43;9.50;;;2.40;99.90;;;;;;4937416;28;20278;-71
2021/01/31 07:06:29;;;;;;;9.90;8.90;;;2.50;99.90;;;;;;4929584;28;20209;-70
2021/01/31 07:09:12;;;;;;;13.80;11.48;;;2.50;99.90;;;;;;4930174;29;20213;-71
2021/01/31 07:11:46;;;;;;;11.50;10.30;;;2.50;99.90;;;;;;4929491;29;20208;-70
2021/01/31 07:14:40;;;;;;;12.88;10.73;;;2.40;99.90;;;;;;4929469;28;20225;-71
2021/01/31 07:17:21;;;;;;;11.77;9.25;;;2.40;99.90;;;;;;4930023;28;20686;-71
2021/01/31 07:19:55;;;;;;;13.57;10.88;;;2.40;99.90;;;;;;4929745;29;20205;-71
2021/01/31 07:22:27;;;;;;;12.18;9.70;;;2.40;99.90;;;;;;4927077;28;20298;-71
2021/01/31 07:25:00;;;;;;;12.63;9.63;;;2.40;99.90;;;;;;4929570;28;20213;-72
2021/01/31 07:27:36;;;;;;;11.65;9.48;;;2.40;99.90;;;;;;4930064;28;20216;-71
2021/01/31 07:30:10;;;;;;;11.00;9.55;;;2.40;99.90;;;;;;4929203;28;20208;-71
2021/01/31 07:32:50;;;;;;;13.25;9.93;;;2.40;99.90;;;;;;4929018;28;20212;-71
2021/01/31 07:35:22;;;;;;;12.80;9.07;;;2.40;99.90;;;;;;4929525;28;20224;-71
2021/01/31 07:37:51;;;;;;;11.55;8.70;;;2.40;99.90;;;;;;4929663;28;20213;-71
2021/01/31 07:40:20;;;;;;;10.38;9.20;;;2.40;99.90;;;;;;4936486;28;20210;-71
2021/01/31 07:42:52;;;;;;;9.75;8.70;;;2.40;99.90;;;;;;4931726;23;21247;-91
2021/01/31 07:45:22;;;;;;;11.60;10.02;;;2.40;99.90;;;;;;4951038;28;20847;-91
2021/01/31 07:47:49;;;;;;;9.82;8.70;;;2.40;99.90;;;;;;4945568;29;20289;-93
2021/01/31 07:50:21;;;;;;;10.10;8.73;;;2.40;99.90;;;;;;4941054;29;20205;-91
2021/01/31 07:52:55;;;;;;;9.60;8.30;;;2.40;99.90;;;;;;4936251;28;20229;-92
2021/01/31 07:55:40;;;;;;;9.25;7.90;;;2.40;99.90;;;;;;4937689;29;20212;-92
2021/01/31 07:58:38;;;;;;;10.27;8.75;;;2.40;99.90;;;;;;4936644;29;20205;-90
2021/01/31 08:01:10;;;;;;;9.52;8.63;;;2.40;99.90;;;;;;4938311;28;20287;-91
2021/01/31 08:03:40;;;;;;;11.35;9.55;;;2.40;99.90;;;;;;4942671;29;20233;-90
2021/01/31 08:06:12;;;;;;;10.25;8.85;;;2.40;99.90;;;;;;4942797;28;20508;-90
2021/01/31 08:08:57;;;;;;;11.52;9.20;;;2.40;99.90;;;;;;4937064;29;20212;-89
2021/01/31 08:11:58;;;;;;;12.00;9.57;;;2.50;99.90;;;;;;4937246;29;20627;-91
2021/01/31 08:15:01;;;;;;;10.45;8.50;;;2.50;99.90;;;;;;4938240;29;20220;-89
2021/01/31 08:18:00;;;;;;;10.70;8.02;;;2.50;99.90;;;;;;4936288;28;20672;-89
2021/01/31 08:20:47;;;;;;;9.80;8.75;;;2.40;99.90;;;;;;4925794;29;20213;-90
2021/01/31 08:23:47;;;;;;;12.00;8.30;;;2.40;99.90;;;;;;4936996;29;20233;-90
2021/01/31 08:26:45;;;;;;;12.18;8.73;;;2.50;99.90;;;;;;4959924;28;20185;-92
2021/01/31 08:29:38;;;;;;;11.95;9.70;;;2.40;99.90;;;;;;4977327;28;20211;-93
2021/01/31 08:32:15;;;;;;;11.43;9.77;;;2.50;99.90;;;;;;4988470;28;20212;-92
2021/01/31 08:35:26;;;;;;;9.75;8.27;;;2.60;99.90;;;;;;4974604;28;20284;-92
2021/01/31 08:38:24;;;;;;;9.90;8.65;;;2.60;99.90;;;;;;4962706;29;20296;-92
2021/01/31 08:41:41;;;;;;;10.45;8.43;;;2.70;99.90;;;;;;4959708;28;20258;-92
2021/01/31 08:44:56;;;;;;;10.25;8.52;;;2.80;99.90;;;;;;4980760;28;20711;-91
2021/01/31 08:47:22;;;;;;;11.60;8.63;;;2.80;99.90;;;;;;4983853;28;20223;-92
2021/01/31 08:50:03;;;;;;;11.32;8.63;;;2.90;99.90;;;;;;4968837;28;20209;-92
2021/01/31 08:52:29;;;;;;;10.07;8.60;;;2.90;99.90;;;;;;4968533;28;20205;-93
2021/01/31 08:54:58;;;;;;;10.32;8.38;;;2.90;99.90;;;;;;4971648;28;20279;-90
2021/01/31 08:57:26;;;;;;;8.73;7.82;;;2.90;99.90;;;;;;4973121;28;20188;-91
2021/01/31 08:59:53;;;;;;;8.50;7.70;;;2.90;99.90;;;;;;4970069;28;20219;-91
2021/01/31 09:02:24;;;;;;;8.18;7.25;;;2.90;99.90;;;;;;4935323;28;20221;-92
2021/01/31 09:04:54;;;;;;;8.23;7.03;;;2.90;99.90;;;;;;4932947;28;20255;-94
2021/01/31 09:07:28;;;;;;;8.75;7.38;;;3.00;99.90;;;;;;4935515;28;20393;-94
2021/01/31 09:10:01;;;;;;;7.90;6.63;;;3.00;99.90;;;;;;4935574;28;20239;-95
2021/01/31 09:12:29;;;;;;;7.90;7.10;;;3.00;99.90;;;;;;4933628;28;20297;-94
2021/01/31 09:15:07;;;;;;;8.68;7.55;;;3.10;99.90;;;;;;4933613;28;20253;-92
2021/01/31 09:17:34;;;;;;;8.90;7.97;;;3.20;99.90;;;;;;4932472;28;20193;-93
2021/01/31 09:20:13;;;;;;;9.57;7.53;;;3.20;99.90;;;;;;4935246;28;20186;-93
2021/01/31 09:22:41;;;;;;;7.80;7.00;;;3.20;99.90;;;;;;4935470;28;20233;-92
2021/01/31 09:25:11;;;;;;;8.90;7.03;;;3.20;99.90;;;;;;4935625;28;20204;-93
2021/01/31 09:27:56;;;;;;;8.20;7.40;;;3.20;99.90;;;;;;4936402;28;20189;-92
2021/01/31 09:30:49;;;;;;;7.85;7.05;;;3.20;99.90;;;;;;4936577;28;20201;-94
2021/01/31 09:33:24;;;;;;;8.18;7.32;;;3.20;99.90;;;;;;4931839;28;20218;-94
2021/01/31 09:35:51;;;;;;;8.70;7.13;;;3.20;99.90;;;;;;4928074;28;20193;-94
2021/01/31 09:38:23;;;;;;;9.10;7.80;;;3.30;99.90;;;;;;4928960;29;20214;-94
2021/01/31 09:40:53;;;;;;;8.30;7.30;;;3.20;99.90;;;;;;4934372;28;20261;-93
2021/01/31 09:43:23;;;;;;;10.15;8.55;;;3.20;99.90;;;;;;4936895;28;20252;-93
2021/01/31 09:45:53;;;;;;;8.50;7.60;;;3.20;99.90;;;;;;4937074;28;20186;-93
2021/01/31 09:48:25;;;;;;;9.80;7.80;;;3.20;99.90;;;;;;4938577;28;20198;-94
2021/01/31 09:50:54;;;;;;;9.57;7.97;;;3.20;99.90;;;;;;4939029;28;20214;-92
2021/01/31 09:53:33;;;;;;;9.20;7.80;;;3.20;99.90;;;;;;4938478;28;20210;-94
2021/01/31 09:56:01;;;;;;;8.35;7.55;;;3.30;99.90;;;;;;4945654;28;20205;-94
2021/01/31 09:58:37;;;;;;;9.98;7.68;;;3.40;99.90;;;;;;4958101;28;20217;-93
2021/01/31 10:01:18;;;;;;;8.50;7.70;;;3.40;99.90;;;;;;4957557;28;20209;-95
2021/01/31 10:03:46;;;;;;;7.93;7.10;;;3.50;99.90;;;;;;4957482;28;20223;-93
2021/01/31 10:06:15;;;;;;;9.10;7.80;;;3.60;99.90;;;;;;4958109;28;20189;-93
2021/01/31 10:11:51;;;;;;;9.18;8.27;;;3.50;99.90;;;;;;4955508;28;20193;-94
2021/01/31 10:14:44;;;;;;;8.40;7.50;;;3.50;99.90;;;;;;4957642;28;20205;-94
2021/01/31 10:17:15;;;;;;;9.30;8.00;;;3.60;99.90;;;;;;4957797;28;20204;-94
2021/01/31 10:19:42;;;;;;;10.05;9.05;;;3.50;99.90;;;;;;4958182;28;20185;-94
2021/01/31 10:22:19;;;;;;;9.60;8.52;;;3.50;99.90;;;;;;4958130;28;20240;-91
2021/01/31 10:24:48;;;;;;;10.63;8.32;;;3.60;99.90;;;;;;4957450;28;20206;-94
2021/01/31 10:27:24;;;;;;;9.00;8.10;;;3.70;99.90;;;;;;4957497;28;20185;-93
2021/01/31 10:29:53;;;;;;;10.27;8.23;;;3.70;99.90;;;;;;4957839;28;20257;-94
2021/01/31 10:32:41;;;;;;;9.50;8.60;;;3.80;99.90;;;;;;4957111;28;20261;-93
2021/01/31 10:35:28;;;;;;;11.52;8.88;;;3.80;99.90;;;;;;4957395;28;20182;-93
2021/01/31 10:37:56;;;;;;;9.20;7.50;;;3.80;99.90;;;;;;4961135;28;20195;-91
2021/01/31 10:40:23;;;;;;;10.07;8.43;;;3.80;99.90;;;;;;4956591;28;20186;-94
2021/01/31 10:42:49;;;;;;;10.48;8.73;;;3.80;99.90;;;;;;4957015;28;20224;-93
2021/01/31 10:45:19;;;;;;;8.98;8.07;;;3.70;99.90;;;;;;4956630;28;20189;-93
2021/01/31 10:47:46;;;;;;;10.50;8.80;;;3.70;99.90;;;;;;4969023;28;20237;-94
2021/01/31 10:50:14;;;;;;;11.48;8.80;;;3.60;99.90;;;;;;4946675;28;20223;-94
2021/01/31 10:52:42;;;;;;;9.98;8.25;;;3.70;99.90;;;;;;4945962;29;20304;-93
2021/01/31 10:55:09;;;;;;;11.13;8.55;;;3.80;99.90;;;;;;4947441;29;20297;-93
2021/01/31 10:57:39;;;;;;;10.88;8.65;;;3.90;99.90;;;;;;4949864;28;20240;-94
2021/01/31 11:00:07;;;;;;;10.02;8.15;;;3.90;99.90;;;;;;4949410;28;20224;-93
2021/01/31 11:02:36;;;;;;;9.52;8.30;;;3.90;99.90;;;;;;4947535;29;20229;-94
2021/01/31 11:05:04;;;;;;;10.65;8.48;;;3.80;99.90;;;;;;4950046;29;20209;-93
2021/01/31 11:07:31;;;;;;;10.90;8.65;;;3.90;99.90;;;;;;4955064;28;20196;-93
2021/01/31 11:10:01;;;;;;;10.15;8.82;;;3.90;99.90;;;;;;4951416;28;20204;-93
2021/01/31 11:12:29;;;;;;;9.55;8.55;;;4.00;99.90;;;;;;4953059;28;20193;-92
2021/01/31 11:14:56;;;;;;;9.50;8.50;;;3.90;99.90;;;;;;4952383;28;20815;-92
2021/01/31 11:17:25;;;;;;;9.35;7.75;;;3.90;99.90;;;;;;4954110;28;20303;-91
2021/01/31 11:19:52;;;;;;;10.82;8.30;;;4.00;99.90;;;;;;4949489;28;20199;-92
2021/01/31 11:22:18;;;;;;;14.23;9.45;;;4.00;99.90;;;;;;4956015;28;20208;-93
2021/01/31 11:24:45;;;;;;;11.48;9.75;;;4.10;99.90;;;;;;4955291;28;20224;-93
2021/01/31 11:27:11;;;;;;;10.50;8.18;;;4.20;99.90;;;;;;4957040;29;20612;-92
2021/01/31 11:29:40;;;;;;;10.70;9.30;;;4.20;99.90;;;;;;4958102;29;20207;-90
2021/01/31 11:32:07;;;;;;;9.75;8.45;;;4.30;99.90;;;;;;4963152;28;20679;-92
2021/01/31 11:34:33;;;;;;;9.77;8.35;;;4.30;99.90;;;;;;4964979;28;20209;-92
2021/01/31 11:37:01;;;;;;;8.95;7.97;;;4.30;99.90;;;;;;4961965;28;20196;-95
2021/01/31 11:39:30;;;;;;;9.60;8.55;;;4.40;99.90;;;;;;4961077;28;20181;-92
2021/01/31 11:41:57;;;;;;;9.00;7.95;;;4.50;99.90;;;;;;4965636;28;20248;-93
2021/01/31 11:44:24;;;;;;;9.20;8.30;;;4.60;99.90;;;;;;4965427;28;20229;-91
2021/01/31 11:46:51;;;;;;;9.90;8.73;;;4.60;99.90;;;;;;4966440;28;20185;-90
2021/01/31 11:49:17;;;;;;;8.52;7.60;;;4.70;99.90;;;;;;4957861;28;20192;-91
2021/01/31 11:51:44;;;;;;;10.75;7.95;;;4.60;99.90;;;;;;4954317;28;20201;-90
2021/01/31 11:54:11;;;;;;;10.70;8.88;;;4.60;99.90;;;;;;4955746;28;20201;-91
2021/01/31 11:56:37;;;;;;;8.85;7.90;;;4.50;99.90;;;;;;4956056;28;20201;-89
2021/01/31 11:59:04;;;;;;;10.60;8.52;;;4.60;99.90;;;;;;4954862;28;20471;-91
2021/01/31 12:01:31;;;;;;;11.13;7.35;;;4.50;99.90;;;;;;4954629;28;20227;-90
2021/01/31 12:03:57;;;;;;;8.45;7.53;;;4.50;99.90;;;;;;4955032;28;20221;-89
2021/01/31 12:06:23;;;;;;;8.55;7.22;;;4.50;99.90;;;;;;4954807;28;20365;-91
2021/01/31 12:08:49;;;;;;;8.93;7.68;;;4.50;99.90;;;;;;4954584;28;20210;-90
2021/01/31 12:11:16;;;;;;;9.43;8.18;;;4.50;99.90;;;;;;4953355;28;20193;-90
2021/01/31 12:13:42;;;;;;;10.15;8.50;;;4.60;99.90;;;;;;4952360;28;20222;-92
2021/01/31 12:16:09;;;;;;;9.25;8.27;;;4.60;99.90;;;;;;4950284;28;20229;-92
2021/01/31 12:18:35;;;;;;;9.13;8.18;;;4.60;99.90;;;;;;4941976;28;20209;-91
2021/01/31 12:21:01;;;;;;;10.55;8.07;;;4.60;99.90;;;;;;4945620;28;20200;-92
2021/01/31 12:23:27;;;;;;;9.60;8.60;;;4.60;99.90;;;;;;4947894;28;20213;-92
2021/01/31 12:26:23;;;;;;;;;;;;;;;;;;;;;
2021/01/31 12:28:50;;;;;;;10.55;9.48;;;4.50;99.90;;;;;;4961959;28;20190;-91
2021/01/31 12:31:17;;;;;;;9.65;7.93;;;4.30;99.90;;;;;;4954560;28;20216;-91
2021/01/31 12:33:45;;;;;;;9.35;8.25;;;4.30;99.90;;;;;;4951407;28;20225;-92
2021/01/31 12:36:11;;;;;;;13.73;8.40;;;4.20;99.90;;;;;;4951186;28;20392;-91
2021/01/31 12:38:37;;;;;;;9.95;8.82;;;4.20;99.90;;;;;;4950992;28;20205;-94
2021/01/31 12:41:04;;;;;;;9.60;8.60;;;4.30;99.90;;;;;;4950915;28;20203;-93
2021/01/31 12:43:30;;;;;;;12.18;9.25;;;4.30;99.90;;;;;;4948626;28;20237;-92
2021/01/31 12:45:57;;;;;;;9.50;7.82;;;4.30;99.90;;;;;;4952994;28;20205;-93
2021/01/31 12:48:24;;;;;;;9.02;8.13;;;4.30;99.90;;;;;;4955511;28;20198;-93
2021/01/31 12:50:50;;;;;;;10.88;8.88;;;4.30;99.90;;;;;;4952743;29;20231;-93
2021/01/31 12:53:16;;;;;;;9.80;8.80;;;4.20;99.90;;;;;;4960339;28;20193;-91
2021/01/31 12:55:42;;;;;;;11.13;8.90;;;4.10;99.90;;;;;;4964588;28;20205;-91
2021/01/31 12:58:09;;;;;;;9.68;8.25;;;4.00;99.90;;;;;;4964923;28;20181;-90
2021/01/31 13:00:35;;;;;;;10.77;8.25;;;4.00;99.90;;;;;;4965224;28;20245;-91
2021/01/31 13:03:02;;;;;;;10.95;9.35;;;3.90;99.90;;;;;;4957845;28;20216;-91
2021/01/31 13:05:32;;;;;;;10.30;9.20;;;3.90;99.90;;;;;;4956598;28;20201;-93
2021/01/31 13:07:58;;;;;;;9.70;8.18;;;3.90;99.90;;;;;;4958711;28;20197;-90
2021/01/31 13:10:25;;;;;;;10.75;8.88;;;3.80;99.90;;;;;;4963402;28;20184;-90
2021/01/31 13:12:51;;;;;;;10.07;8.70;;;3.80;99.90;;;;;;4958159;28;20201;-90
2021/01/31 13:15:19;;;;;;;9.95;8.20;;;3.80;99.90;;;;;;4959865;28;20178;-92
2021/01/31 13:17:47;;;;;;;10.35;8.80;;;3.80;99.90;;;;;;4950810;28;20247;-93
2021/01/31 13:20:14;;;;;;;10.73;9.05;;;3.80;99.90;;;;;;4944704;28;20200;-92
2021/01/31 13:22:41;;;;;;;10.95;9.27;;;3.80;99.90;;;;;;4946868;28;20234;-92